Aeroporto :
LOGIN :

Iscrizione | Disclaimer

   EN    FR    IT 

 










Sommario :    VFR   VFR Marginale   IFR   IFR Intensivo   IFR Molto Intensivo
Visibilità : 
Base nubi : 
>= 8 km
>= 3000ft
5 / 8 km
1000 / 3000 ft
1500m / 5 km
500 / 1000 ft
800 / 1500m
200 / 500 ft
< 800m
< 200 ft
Simboli :   Temporali  Nebbia  Neve Forte  Precipitazioni Forti  Vento > 20 kt
SIGMETs :   Varie  Temporali  Ghiacco  Turbolenza  Onda orograficha  Ceneri Vulcaniche






- Altitudine del aeroporto : 586 ft


LIMN - Cameri Air Force Base

ULTIMO METAR :
  • 051255Z /////KT CAVOK 26/17 Q1007 RMK FEW FEW200 VIS MIN 9999 BLU

METARs OBSOLETI :
  • 051155Z /////KT CAVOK 25/19 Q1007 RMK FEW FEW200 VIS MIN 9999 BLU
  • 051055Z /////KT CAVOK 24/18 Q1008 RMK FEW FEW080 VIS MIN 9999 BLU

TAF TAF LIMN
Valido dal 05 a 12 ore il 05 a 21 ore UTC


051100Z 0512/0521 30005KT 9999 FEW050



MetMap, La meteo Aeronautica in un colpo d'occhio ! - Copyright ORBIFLY Dicembre 2007 - Disclaimer

ORBIFLY MET'MAP TEAM :

Programmazione e sviluppo : Alexandra Zaïnal
Concezione : Baudouin d'Aumeries
Aiuto per la programmazione : Marc-Olivier Méhu
Supporto tecnico e logistico : Manuel Goepfert
Aiuto per la traduzione : Arnaldo La Scala

Contatto : metmap@orbifly.com




FONTI E CREDITI :

   NOAA